< Typhoon 198308 1983 Season Typhoon 198310 >
Typhoon 198309 (ELLEN)
General InformationTrack Information on Google MapsDetailed Wind InformationList of All Images || Disaster Info.ResourceGoogle EarthGE AnimationAtom FeedGeoJSON
Detalied Best Track (Time Zone = UTC)
Year Month Day Hour Lat. Long. Pressure (hPa) Wind (kt) Class Image Chart
1983 8 28 00 12.0 177.0 1008 0 2 Image Chart
1983 8 28 06 12.0 176.0 1008 0 2 Image Chart
1983 8 28 12 12.0 175.0 1008 0 2 Image Chart
1983 8 28 18 12.0 173.5 1008 0 2 Image Chart
1983 8 29 00 12.0 172.0 1010 0 2 Image Chart
1983 8 29 06 12.2 170.5 1010 0 2 Image Chart
1983 8 29 12 12.5 169.0 1010 0 2 Image Chart
1983 8 29 18 12.8 167.0 1010 0 2 Image Chart
1983 8 30 00 13.0 165.0 1008 0 2 Image Chart
1983 8 30 06 13.0 163.5 1006 0 2 Image Chart
1983 8 30 12 12.5 161.5 1006 0 2 Image Chart
1983 8 30 18 12.0 160.0 1006 0 2 Image Chart
1983 8 31 00 11.2 158.5 1004 0 2 Image Chart
1983 8 31 06 10.8 157.1 1002 35 3 Image Chart
1983 8 31 12 10.5 154.9 1002 35 3 Image Chart
1983 8 31 18 10.2 152.6 1002 35 3 Image Chart
1983 9 1 00 10.3 150.9 1002 35 3 Image Chart
1983 9 1 06 10.3 149.2 1002 35 3 Image Chart
1983 9 1 12 9.3 147.0 1002 35 3 Image Chart
1983 9 1 18 8.7 145.1 1002 35 3 Image Chart
1983 9 2 00 9.1 143.4 1000 35 3 Image Chart
1983 9 2 06 9.3 141.6 998 35 3 Image Chart
1983 9 2 12 9.3 140.4 996 40 3 Image Chart
1983 9 2 18 9.5 139.0 992 40 3 Image Chart
1983 9 3 00 10.0 137.5 990 50 4 Image Chart
1983 9 3 06 10.5 136.0 990 50 4 Image Chart
1983 9 3 12 11.0 134.5 985 55 4 Image Chart
1983 9 3 18 11.6 133.0 985 55 4 Image Chart
1983 9 4 00 12.2 131.7 985 65 5 Image Chart
1983 9 4 06 13.0 130.7 980 70 5 Image Chart
1983 9 4 12 13.8 129.7 980 70 5 Image Chart
1983 9 4 18 14.5 128.7 975 70 5 Image Chart
1983 9 5 00 15.1 127.8 970 75 5 Image Chart
1983 9 5 06 15.9 126.9 960 85 5 Image Chart
1983 9 5 12 16.6 125.9 950 95 5 Image Chart
1983 9 5 18 17.2 124.9 940 95 5 Image Chart
1983 9 6 00 17.8 124.0 930 105 5 Image Chart
1983 9 6 06 18.3 123.0 925 110 5 Image Chart
1983 9 6 12 18.8 122.1 925 110 5 Image Chart
1983 9 6 18 19.0 121.1 945 95 5 Image Chart
1983 9 7 00 19.2 120.1 965 80 5 Image Chart
1983 9 7 06 19.4 119.1 965 80 5 Image Chart
1983 9 7 12 19.8 117.9 960 80 5 Image Chart
1983 9 7 18 20.0 117.5 960 80 5 Image Chart
1983 9 8 00 20.5 116.6 965 80 5 Image Chart
1983 9 8 06 20.9 115.8 965 75 5 Image Chart
1983 9 8 12 21.3 114.9 965 75 5 Image Chart
1983 9 8 18 21.8 114.2 965 75 5 Image Chart
1983 9 9 00 22.2 113.5 965 75 5 Image Chart
1983 9 9 06 22.8 112.7 980 55 4 Image Chart
1983 9 9 12 23.7 112.2 996 40 3 Image Chart
1983 9 9 18 25.0 111.0 1002 0 2 Image Chart
1983 9 10 00 26.0 109.5 1004 0 6 Image Chart
1983 9 10 06 26.0 108.5 1004 0 6 Image Chart
Japan Meteorological Agency Best Track Data | Correction Date : 1992-10-21
< Typhoon 198308 1983 Season Typhoon 198310 >

Help